Inkom, Idaho
Current Conditions -  °F | °C
As of 1:53 PM on Friday 24 Oct 2014 (Local Time) from KPIH Reporting Station
Clear Clear  
Wind Chill: 70°   Ceiling: Unl
Heat Index: 70°   Visibility: 10mi
Dew Point: 36°   Wind: 7mph
Humidity: 29%   Direction: 310°NW
Pressure: 30.12"   Gusts: NA
Location:  42.8°N, 112.25°W
Report Text: KPIH 241953Z 31006KT 10SM CLR 21/02 A3012 RMK AO2 SLP165 T02110022
Loading
Personal Weather Stations






























Interactive Weather Map
Tropical Storm Tracking
New forecast layout! Learn more

10-Day Weather Forecast

Advertisements
Track Severe Weather on mobile